createdAt,value
2022-09-25T00:00:49.594Z,92.90
2022-09-25T00:03:19.755Z,92.24
2022-09-25T00:05:48.496Z,91.61
2022-09-25T00:08:17.323Z,91.88
2022-09-25T00:10:47.340Z,91.71
2022-09-25T00:13:15.913Z,91.60
2022-09-25T00:15:47.994Z,92.16
2022-09-25T00:18:16.185Z,92.12
2022-09-25T00:20:44.143Z,92.44
2022-09-25T00:23:11.753Z,92.20
2022-09-25T00:25:39.591Z,92.34
2022-09-25T00:28:07.172Z,93.38
2022-09-25T00:30:34.871Z,93.76
2022-09-25T00:33:02.422Z,94.50
2022-09-25T00:35:30.033Z,94.56
2022-09-25T00:37:58.983Z,95.30
2022-09-25T00:40:26.683Z,94.78
2022-09-25T00:42:54.264Z,93.82
2022-09-25T00:45:24.171Z,93.78
2022-09-25T00:48:00.990Z,94.22
2022-09-25T00:50:35.086Z,94.04
2022-09-25T00:53:09.323Z,95.07
2022-09-25T00:55:40.691Z,95.60
2022-09-25T00:58:09.285Z,95.22
2022-09-25T01:00:36.955Z,95.07
2022-09-25T01:03:06.356Z,94.77
2022-09-25T01:05:37.660Z,94.78
2022-09-25T01:08:10.108Z,94.49
2022-09-25T01:10:37.806Z,94.74
2022-09-25T01:13:06.352Z,94.86
2022-09-25T01:15:40.506Z,94.63
2022-09-25T01:18:20.862Z,95.17
2022-09-25T01:21:06.275Z,94.52
2022-09-25T01:23:56.805Z,95.06
2022-09-25T01:26:49.784Z,94.14
2022-09-25T01:29:23.549Z,93.63
2022-09-25T01:32:03.125Z,93.60
2022-09-25T01:34:40.642Z,93.62
2022-09-25T01:37:22.206Z,93.41
2022-09-25T01:39:57.805Z,93.71
2022-09-25T01:42:31.152Z,93.75
2022-09-25T01:45:05.893Z,94.06
2022-09-25T01:47:38.400Z,94.39
2022-09-25T01:50:10.698Z,94.87
2022-09-25T01:52:41.920Z,95.10
2022-09-25T01:55:25.104Z,95.50
2022-09-25T01:57:58.017Z,94.34
2022-09-25T02:00:27.742Z,93.34
2022-09-25T02:02:58.367Z,93.98
2022-09-25T02:05:31.127Z,93.82
2022-09-25T02:08:03.041Z,93.63
2022-09-25T02:10:35.382Z,93.53
2022-09-25T02:13:08.691Z,94.72
2022-09-25T02:15:41.584Z,94.00
2022-09-25T02:18:30.465Z,94.90
2022-09-25T02:21:06.863Z,94.89
2022-09-25T02:23:46.601Z,94.84
2022-09-25T02:26:21.939Z,94.96
2022-09-25T02:28:53.701Z,95.62
2022-09-25T02:31:24.156Z,95.12
2022-09-25T02:33:52.095Z,94.57
2022-09-25T02:36:22.076Z,94.43
2022-09-25T02:38:51.519Z,94.84
2022-09-25T02:41:32.972Z,95.17
2022-09-25T02:44:12.216Z,94.96
2022-09-25T02:46:51.678Z,94.51
2022-09-25T02:49:26.812Z,94.40
2022-09-25T02:52:05.456Z,95.24
2022-09-25T02:54:39.685Z,95.02
2022-09-25T02:57:14.492Z,94.80
2022-09-25T02:59:46.771Z,94.46
2022-09-25T03:02:17.398Z,94.32
2022-09-25T03:04:48.159Z,94.60
2022-09-25T03:07:17.686Z,94.91
2022-09-25T03:09:46.874Z,95.00
2022-09-25T03:12:15.647Z,95.38
2022-09-25T03:14:43.368Z,94.33
2022-09-25T03:17:12.517Z,93.94
2022-09-25T03:19:41.487Z,95.34
2022-09-25T03:22:09.098Z,95.32
2022-09-25T03:24:37.565Z,95.99
2022-09-25T03:27:05.223Z,96.06
2022-09-25T03:29:33.714Z,95.69
2022-09-25T03:32:01.597Z,96.00
2022-09-25T03:34:29.311Z,95.84
2022-09-25T03:36:58.334Z,95.39
2022-09-25T03:39:25.898Z,95.44
2022-09-25T03:41:53.463Z,95.56
2022-09-25T03:44:21.101Z,95.80
2022-09-25T03:46:48.660Z,96.03
2022-09-25T03:49:16.292Z,95.88
2022-09-25T03:51:43.896Z,94.92
2022-09-25T03:54:12.888Z,94.25
2022-09-25T03:56:40.631Z,95.21
2022-09-25T03:59:08.404Z,95.13
2022-09-25T04:01:36.961Z,96.23
2022-09-25T04:04:04.729Z,96.76
2022-09-25T04:06:32.551Z,96.32
2022-09-25T04:09:00.217Z,96.10
2022-09-25T04:11:29.241Z,95.75
2022-09-25T04:13:56.978Z,96.10
2022-09-25T04:16:24.589Z,96.29
2022-09-25T04:18:52.298Z,96.56
2022-09-25T04:21:20.044Z,96.70
2022-09-25T04:24:07.611Z,96.51
2022-09-25T04:26:36.815Z,96.18
2022-09-25T04:29:05.435Z,96.52
2022-09-25T04:31:33.379Z,96.40
2022-09-25T04:34:03.070Z,95.98
2022-09-25T04:36:30.724Z,95.93
2022-09-25T04:38:58.293Z,95.65
2022-09-25T04:41:25.979Z,95.35
2022-09-25T04:43:54.913Z,94.66
2022-09-25T04:46:23.060Z,95.19
2022-09-25T04:48:51.435Z,95.49
2022-09-25T04:51:19.132Z,94.80
2022-09-25T04:53:47.213Z,95.01
2022-09-25T04:56:16.384Z,95.30
2022-09-25T04:58:45.985Z,95.44
2022-09-25T05:01:15.316Z,95.21
2022-09-25T05:03:43.253Z,95.83
2022-09-25T05:06:11.065Z,96.02
2022-09-25T05:08:38.656Z,96.15
2022-09-25T05:11:07.868Z,96.78
2022-09-25T05:13:35.488Z,95.83
2022-09-25T05:16:03.416Z,95.63
2022-09-25T05:18:32.432Z,95.34
2022-09-25T05:21:04.747Z,95.90
2022-09-25T05:23:32.381Z,96.04
2022-09-25T05:26:02.424Z,96.27
2022-09-25T05:28:30.720Z,96.60
2022-09-25T05:31:00.121Z,96.83
2022-09-25T05:33:27.714Z,96.59
2022-09-25T05:35:56.697Z,96.41
2022-09-25T05:38:24.294Z,96.52
2022-09-25T05:40:52.559Z,97.06
2022-09-25T05:43:20.475Z,97.16
2022-09-25T05:45:54.705Z,96.92
2022-09-25T05:48:22.476Z,96.95
2022-09-25T05:50:52.493Z,96.73
2022-09-25T05:53:21.487Z,96.95
2022-09-25T05:55:51.935Z,97.16
2022-09-25T05:58:19.904Z,96.78
2022-09-25T06:00:47.758Z,97.07
2022-09-25T06:03:16.357Z,96.67
2022-09-25T06:05:45.092Z,96.69
2022-09-25T06:08:13.387Z,96.14
2022-09-25T06:10:43.086Z,96.58
2022-09-25T06:13:10.685Z,96.88
2022-09-25T06:15:41.893Z,97.24
2022-09-25T06:18:10.274Z,96.68
2022-09-25T06:20:37.911Z,97.12
2022-09-25T06:23:05.505Z,96.70
2022-09-25T06:25:33.542Z,96.74
2022-09-25T06:28:03.120Z,97.15
2022-09-25T06:30:34.465Z,96.61
2022-09-25T06:33:02.838Z,95.65
2022-09-25T06:35:31.093Z,96.30
2022-09-25T06:37:59.591Z,96.91
2022-09-25T06:40:28.322Z,96.82
2022-09-25T06:42:59.281Z,96.91
2022-09-25T06:45:30.068Z,97.12
2022-09-25T06:48:01.871Z,97.11
2022-09-25T06:50:33.112Z,97.44
2022-09-25T06:53:00.712Z,97.92
2022-09-25T06:55:28.897Z,97.86
2022-09-25T06:57:56.490Z,97.29
2022-09-25T07:00:24.048Z,98.09
2022-09-25T07:03:10.771Z,97.25
2022-09-25T07:05:38.484Z,96.66
2022-09-25T07:08:06.169Z,96.60
2022-09-25T07:10:33.714Z,96.12
2022-09-25T07:13:01.712Z,95.82
2022-09-25T07:15:29.391Z,95.78
2022-09-25T07:17:58.885Z,96.32
2022-09-25T07:20:26.449Z,95.99
2022-09-25T07:22:54.819Z,96.28
2022-09-25T07:25:22.500Z,96.50
2022-09-25T07:27:50.073Z,96.12
2022-09-25T07:30:17.916Z,95.90
2022-09-25T07:32:45.799Z,95.18
2022-09-25T07:35:14.773Z,95.59
2022-09-25T07:37:42.328Z,96.62
2022-09-25T07:40:14.552Z,97.01
2022-09-25T07:42:42.685Z,96.30
2022-09-25T07:45:11.707Z,96.72
2022-09-25T07:47:39.350Z,96.52
2022-09-25T07:50:10.893Z,96.44
2022-09-25T07:52:42.292Z,95.88
2022-09-25T07:55:10.712Z,94.85
2022-09-25T07:57:38.270Z,94.91
2022-09-25T08:00:06.936Z,95.25
2022-09-25T08:02:35.191Z,95.39
2022-09-25T08:05:02.944Z,94.70
2022-09-25T08:07:30.737Z,94.46
2022-09-25T08:09:59.691Z,95.91
2022-09-25T08:12:27.802Z,95.98
2022-09-25T08:14:55.431Z,94.98
2022-09-25T08:17:23.516Z,95.01
2022-09-25T08:19:51.102Z,95.49
2022-09-25T08:22:18.713Z,95.20
2022-09-25T08:24:46.306Z,95.85
2022-09-25T08:27:15.221Z,96.53
2022-09-25T08:29:42.799Z,96.20
2022-09-25T08:32:10.370Z,95.94
2022-09-25T08:34:41.979Z,94.96
2022-09-25T08:37:10.273Z,94.05
2022-09-25T08:39:38.288Z,94.72
2022-09-25T08:42:06.502Z,95.83
2022-09-25T08:44:38.305Z,95.64
2022-09-25T08:47:31.605Z,94.41
2022-09-25T08:50:03.900Z,92.85
2022-09-25T08:52:32.368Z,91.79
2022-09-25T08:55:00.045Z,92.31
2022-09-25T08:57:35.027Z,92.07
2022-09-25T09:00:08.996Z,90.52
2022-09-25T09:02:43.753Z,89.48
2022-09-25T09:05:18.324Z,90.04
2022-09-25T09:07:53.169Z,89.25
2022-09-25T09:10:31.926Z,88.43
2022-09-25T09:13:06.562Z,88.92
2022-09-25T09:15:43.885Z,89.23
2022-09-25T09:18:22.311Z,89.11
2022-09-25T09:20:53.577Z,89.06
2022-09-25T09:23:23.566Z,89.40
2022-09-25T09:26:00.953Z,89.61
2022-09-25T09:28:55.739Z,89.95
2022-09-25T09:31:31.335Z,89.80
2022-09-25T09:34:09.966Z,89.46
2022-09-25T09:36:49.466Z,88.33
2022-09-25T09:39:25.072Z,87.40
2022-09-25T09:42:02.644Z,86.45
2022-09-25T09:44:44.104Z,86.87
2022-09-25T09:47:30.602Z,86.89
2022-09-25T09:50:07.687Z,86.93
2022-09-25T09:52:40.208Z,88.14
2022-09-25T09:55:20.772Z,88.21
2022-09-25T09:57:51.889Z,88.57
2022-09-25T10:00:22.767Z,90.69
2022-09-25T10:02:55.441Z,90.11
2022-09-25T10:05:27.535Z,89.68
2022-09-25T10:07:55.823Z,89.44
2022-09-25T10:10:30.606Z,88.29
2022-09-25T10:13:06.211Z,88.58
2022-09-25T10:15:38.320Z,87.63
2022-09-25T10:18:08.727Z,87.78
2022-09-25T10:20:41.750Z,88.13
2022-09-25T10:23:22.932Z,87.51
2022-09-25T10:25:55.761Z,86.75
2022-09-25T10:28:28.551Z,85.50
2022-09-25T10:30:57.195Z,84.46
2022-09-25T10:33:28.423Z,84.09
2022-09-25T10:35:56.192Z,83.66
2022-09-25T10:38:35.312Z,85.52
2022-09-25T10:41:07.426Z,86.93
2022-09-25T10:43:35.457Z,87.30
2022-09-25T10:46:08.984Z,86.14
2022-09-25T10:48:56.755Z,85.53
2022-09-25T10:51:25.626Z,85.79
2022-09-25T10:53:57.324Z,85.74
2022-09-25T10:56:35.899Z,85.50
2022-09-25T10:59:04.126Z,85.43
2022-09-25T11:01:35.885Z,85.64
2022-09-25T11:04:14.627Z,85.10
2022-09-25T11:06:46.874Z,85.15
2022-09-25T11:09:17.512Z,85.65
2022-09-25T11:11:46.990Z,85.90
2022-09-25T11:14:25.040Z,85.91
2022-09-25T11:16:57.547Z,89.75
2022-09-25T11:19:31.482Z,88.35
2022-09-25T11:22:07.920Z,87.35
2022-09-25T11:25:03.017Z,86.54
2022-09-25T11:27:37.769Z,86.62
2022-09-25T11:30:09.956Z,85.92
2022-09-25T11:32:51.684Z,85.25
2022-09-25T11:35:34.608Z,83.92
2022-09-25T11:38:13.118Z,83.46
2022-09-25T11:41:07.047Z,83.27
2022-09-25T11:43:44.410Z,82.61
2022-09-25T11:46:23.330Z,82.36
2022-09-25T11:49:01.751Z,81.78
2022-09-25T11:51:50.455Z,81.23
2022-09-25T11:54:35.269Z,81.61
2022-09-25T11:57:11.064Z,82.05
2022-09-25T11:59:51.710Z,82.60
2022-09-25T12:02:29.703Z,83.45
2022-09-25T12:05:16.304Z,82.84
2022-09-25T12:08:12.146Z,84.06
2022-09-25T12:10:52.327Z,84.00
2022-09-25T12:13:27.983Z,82.83
2022-09-25T12:16:08.570Z,81.42
2022-09-25T12:19:09.536Z,80.20
2022-09-25T12:21:44.740Z,80.17
2022-09-25T12:24:32.638Z,80.14
2022-09-25T12:27:08.095Z,80.14
2022-09-25T12:29:50.477Z,79.72
2022-09-25T12:32:30.059Z,80.13
2022-09-25T12:35:15.047Z,80.85
2022-09-25T12:37:46.595Z,82.67
2022-09-25T12:40:24.297Z,82.41
2022-09-25T12:42:58.793Z,82.42
2022-09-25T12:45:32.564Z,81.97
2022-09-25T12:48:09.827Z,81.03
2022-09-25T12:50:44.983Z,80.59
2022-09-25T12:53:24.224Z,80.58
2022-09-25T12:55:58.744Z,80.87
2022-09-25T12:58:46.204Z,80.35
2022-09-25T13:01:22.736Z,81.03
2022-09-25T13:03:59.263Z,81.05
2022-09-25T13:06:40.782Z,80.15
2022-09-25T13:09:18.370Z,80.08
2022-09-25T13:11:51.932Z,79.76
2022-09-25T13:14:34.643Z,79.32
2022-09-25T13:17:02.733Z,79.32
2022-09-25T13:19:33.035Z,79.73
2022-09-25T13:22:04.634Z,79.52
2022-09-25T13:24:42.401Z,78.62
2022-09-25T13:27:18.845Z,78.18
2022-09-25T13:29:54.291Z,77.45
2022-09-25T13:32:24.450Z,77.78
2022-09-25T13:34:57.807Z,77.79
2022-09-25T13:37:29.632Z,76.94
2022-09-25T13:40:15.112Z,76.36
2022-09-25T13:42:46.491Z,76.35
2022-09-25T13:45:33.494Z,76.69
2022-09-25T13:48:09.592Z,77.10
2022-09-25T13:50:39.700Z,76.97
2022-09-25T13:53:25.720Z,76.76
2022-09-25T13:56:19.532Z,76.68
2022-09-25T13:59:16.573Z,75.60
2022-09-25T14:01:45.989Z,76.53
2022-09-25T14:04:28.928Z,76.11
2022-09-25T14:07:04.515Z,76.47
2022-09-25T14:09:33.840Z,76.05
2022-09-25T14:12:10.051Z,75.93
2022-09-25T14:14:52.566Z,76.33
2022-09-25T14:17:21.919Z,76.26
2022-09-25T14:19:52.451Z,76.64
2022-09-25T14:22:28.600Z,77.19
2022-09-25T14:24:56.414Z,77.25
2022-09-25T14:27:27.801Z,77.13
2022-09-25T14:30:07.303Z,77.06
2022-09-25T14:33:01.257Z,76.77
2022-09-25T14:35:36.500Z,76.23
2022-09-25T14:38:26.609Z,75.39
2022-09-25T14:41:10.040Z,74.84
2022-09-25T14:43:52.002Z,74.89
2022-09-25T14:46:22.610Z,74.62
2022-09-25T14:48:54.229Z,75.12
2022-09-25T14:51:25.904Z,75.05
2022-09-25T14:53:56.351Z,74.53
2022-09-25T14:56:25.335Z,75.05
2022-09-25T14:58:58.491Z,74.83
2022-09-25T15:01:30.322Z,74.24
2022-09-25T15:04:01.105Z,74.36
2022-09-25T15:06:31.742Z,74.37
2022-09-25T15:09:01.745Z,74.43
2022-09-25T15:11:40.693Z,74.81
2022-09-25T15:14:12.863Z,74.60
2022-09-25T15:17:01.844Z,74.35
2022-09-25T15:19:34.129Z,73.66
2022-09-25T15:22:02.073Z,73.65
2022-09-25T15:24:32.748Z,72.83
2022-09-25T15:27:05.112Z,72.82
2022-09-25T15:29:36.523Z,73.17
2022-09-25T15:32:07.035Z,73.01
2022-09-25T15:34:35.153Z,73.30
2022-09-25T15:37:18.798Z,72.95
2022-09-25T15:39:46.392Z,72.81
2022-09-25T15:42:14.994Z,72.93
2022-09-25T15:44:43.128Z,72.71
2022-09-25T15:47:49.743Z,72.78
2022-09-25T15:50:23.769Z,73.84
2022-09-25T15:52:53.758Z,73.60
2022-09-25T15:55:22.216Z,73.91
2022-09-25T15:57:52.150Z,73.76
2022-09-25T16:00:39.781Z,74.01
2022-09-25T16:03:34.539Z,73.91
2022-09-25T16:06:03.706Z,74.20
2022-09-25T16:08:33.536Z,74.52
2022-09-25T16:11:13.700Z,74.78
2022-09-25T16:13:43.597Z,74.90
2022-09-25T16:16:22.961Z,74.35
2022-09-25T16:18:54.455Z,74.47
2022-09-25T16:21:27.359Z,74.54
2022-09-25T16:23:58.437Z,74.74
2022-09-25T16:26:31.008Z,74.56
2022-09-25T16:29:06.511Z,74.59
2022-09-25T16:31:36.403Z,75.06
2022-09-25T16:34:08.512Z,74.92
2022-09-25T16:36:41.576Z,74.76
2022-09-25T16:39:23.847Z,74.66
2022-09-25T16:41:52.074Z,74.49
2022-09-25T16:44:22.052Z,74.81
2022-09-25T16:47:06.353Z,74.46
2022-09-25T16:49:35.803Z,74.92
2022-09-25T16:52:08.414Z,75.54
2022-09-25T16:54:38.965Z,76.08
2022-09-25T16:57:06.675Z,77.00
2022-09-25T16:59:34.354Z,76.92
2022-09-25T17:02:12.177Z,77.01
2022-09-25T17:04:41.197Z,77.04
2022-09-25T17:07:09.530Z,75.82
2022-09-25T17:09:37.144Z,75.31
2022-09-25T17:12:12.325Z,75.18
2022-09-25T17:14:40.136Z,74.55
2022-09-25T17:17:07.734Z,74.59
2022-09-25T17:19:35.349Z,74.68
2022-09-25T17:22:04.327Z,74.23
2022-09-25T17:24:31.910Z,73.99
2022-09-25T17:26:59.528Z,73.56
2022-09-25T17:29:27.439Z,73.07
2022-09-25T17:31:55.100Z,72.19
2022-09-25T17:34:28.227Z,71.64
2022-09-25T17:36:56.426Z,71.93
2022-09-25T17:39:25.352Z,72.08
2022-09-25T17:41:53.095Z,72.44
2022-09-25T17:44:23.605Z,72.75
2022-09-25T17:46:52.017Z,73.05
2022-09-25T17:49:19.736Z,73.50
2022-09-25T17:51:47.630Z,73.48
2022-09-25T17:54:17.244Z,73.69
2022-09-25T17:56:46.360Z,73.98
2022-09-25T17:59:15.131Z,74.01
2022-09-25T18:01:42.936Z,74.18
2022-09-25T18:04:20.217Z,74.58
2022-09-25T18:06:48.252Z,74.80
2022-09-25T18:09:15.981Z,74.25
2022-09-25T18:11:44.798Z,74.14
2022-09-25T18:14:15.747Z,74.25
2022-09-25T18:16:44.790Z,74.32
2022-09-25T18:19:34.659Z,73.94
2022-09-25T18:22:25.254Z,74.52
2022-09-25T18:24:56.579Z,74.52
2022-09-25T18:27:26.249Z,74.88
2022-09-25T18:29:55.640Z,75.08
2022-09-25T18:32:24.041Z,75.68
2022-09-25T18:34:51.834Z,75.55
2022-09-25T18:37:19.613Z,75.04
2022-09-25T18:39:48.021Z,74.88
2022-09-25T18:42:15.725Z,74.82
2022-09-25T18:44:43.457Z,74.88
2022-09-25T18:47:12.743Z,74.95
2022-09-25T18:49:40.399Z,75.19
2022-09-25T18:52:07.991Z,75.48
2022-09-25T18:54:35.846Z,75.43
2022-09-25T18:57:03.545Z,75.27
2022-09-25T18:59:31.283Z,75.44
2022-09-25T19:01:59.988Z,75.60
2022-09-25T19:04:29.543Z,75.37
2022-09-25T19:06:57.554Z,75.18
2022-09-25T19:09:27.596Z,74.98
2022-09-25T19:11:55.439Z,74.63
2022-09-25T19:14:24.048Z,74.43
2022-09-25T19:16:53.081Z,74.34
2022-09-25T19:19:21.053Z,75.00
2022-09-25T19:21:50.037Z,75.06
2022-09-25T19:24:18.665Z,74.78
2022-09-25T19:26:47.984Z,74.81
2022-09-25T19:29:15.728Z,74.61
2022-09-25T19:31:43.542Z,74.11
2022-09-25T19:34:11.321Z,73.90
2022-09-25T19:36:39.118Z,73.32
2022-09-25T19:39:08.042Z,73.51
2022-09-25T19:41:38.082Z,73.22
2022-09-25T19:44:13.290Z,72.84
2022-09-25T19:46:42.195Z,72.74
2022-09-25T19:49:10.096Z,72.65
2022-09-25T19:51:38.191Z,73.28
2022-09-25T19:54:07.493Z,72.94
2022-09-25T19:56:40.426Z,72.92
2022-09-25T19:59:08.795Z,74.23
2022-09-25T20:01:36.557Z,74.98
2022-09-25T20:04:08.200Z,75.13
2022-09-25T20:06:37.884Z,75.03
2022-09-25T20:09:06.744Z,74.48
2022-09-25T20:11:36.602Z,74.55
2022-09-25T20:14:07.450Z,74.94
2022-09-25T20:16:37.294Z,74.59
2022-09-25T20:19:07.702Z,74.75
2022-09-25T20:21:37.232Z,74.22
2022-09-25T20:24:07.356Z,74.05
2022-09-25T20:26:36.708Z,74.23
2022-09-25T20:29:08.637Z,73.90
2022-09-25T20:31:38.250Z,73.85
2022-09-25T20:34:06.519Z,74.09
2022-09-25T20:36:36.218Z,73.83
2022-09-25T20:39:03.808Z,73.29
2022-09-25T20:41:31.449Z,73.74
2022-09-25T20:44:00.560Z,74.66
2022-09-25T20:46:29.879Z,74.86
2022-09-25T20:48:59.570Z,74.83
2022-09-25T20:51:29.720Z,74.87
2022-09-25T20:53:59.350Z,75.63
2022-09-25T20:56:27.959Z,76.01
2022-09-25T20:58:56.935Z,76.68
2022-09-25T21:01:27.888Z,77.04
2022-09-25T21:03:55.708Z,76.75
2022-09-25T21:06:25.335Z,77.06
2022-09-25T21:08:54.141Z,77.57
2022-09-25T21:11:22.316Z,77.34
2022-09-25T21:13:51.651Z,77.76
2022-09-25T21:16:20.835Z,79.26
2022-09-25T21:18:54.090Z,79.05
2022-09-25T21:21:21.866Z,79.07
2022-09-25T21:23:51.523Z,79.00
2022-09-25T21:26:19.574Z,79.29
2022-09-25T21:28:52.251Z,78.97
2022-09-25T21:31:22.274Z,79.96
2022-09-25T21:33:53.665Z,80.01
2022-09-25T21:36:22.006Z,80.05
2022-09-25T21:38:50.136Z,80.89
2022-09-25T21:41:20.116Z,79.95
2022-09-25T21:43:48.156Z,79.39
2022-09-25T21:46:18.204Z,78.10
2022-09-25T21:48:49.967Z,78.31
2022-09-25T21:51:21.047Z,78.32
2022-09-25T21:53:49.039Z,78.05
2022-09-25T21:56:18.739Z,77.83
2022-09-25T21:58:47.473Z,78.04
2022-09-25T22:01:17.143Z,78.87
2022-09-25T22:03:48.035Z,80.17
2022-09-25T22:06:17.514Z,81.02
2022-09-25T22:08:50.980Z,80.78
2022-09-25T22:11:20.035Z,81.65
2022-09-25T22:13:49.162Z,81.68
2022-09-25T22:16:20.042Z,82.19
2022-09-25T22:18:49.699Z,81.95
2022-09-25T22:21:19.441Z,81.49
2022-09-25T22:23:48.630Z,80.57
2022-09-25T22:26:17.666Z,80.03
2022-09-25T22:28:46.198Z,80.06
2022-09-25T22:31:16.176Z,80.25
2022-09-25T22:33:44.115Z,80.54
2022-09-25T22:36:13.127Z,79.99
2022-09-25T22:38:41.141Z,79.38
2022-09-25T22:41:11.990Z,79.94
2022-09-25T22:43:40.429Z,80.58
2022-09-25T22:46:09.593Z,80.68
2022-09-25T22:48:37.985Z,80.72
2022-09-25T22:51:07.636Z,80.59
2022-09-25T22:53:36.946Z,80.30
2022-09-25T22:56:15.304Z,79.83
2022-09-25T22:58:44.048Z,79.75
2022-09-25T23:01:14.230Z,79.69
2022-09-25T23:03:41.845Z,79.86
2022-09-25T23:06:09.646Z,79.43
2022-09-25T23:08:37.963Z,79.75
2022-09-25T23:11:08.340Z,79.66
2022-09-25T23:13:37.803Z,79.02
2022-09-25T23:16:07.092Z,79.06
2022-09-25T23:18:35.190Z,79.08
2022-09-25T23:21:03.359Z,78.74
2022-09-25T23:23:31.385Z,78.34
2022-09-25T23:26:03.295Z,78.06
2022-09-25T23:28:33.266Z,77.79
2022-09-25T23:31:08.243Z,76.97
2022-09-25T23:33:36.890Z,77.28
2022-09-25T23:36:06.578Z,77.35
2022-09-25T23:38:34.883Z,76.75
2022-09-25T23:41:02.688Z,76.85
2022-09-25T23:43:30.329Z,77.87
2022-09-25T23:45:57.957Z,79.53
2022-09-25T23:48:26.902Z,79.54
2022-09-25T23:50:54.486Z,80.61
2022-09-25T23:53:22.109Z,81.51
2022-09-25T23:55:49.666Z,82.61
2022-09-25T23:58:18.014Z,82.56
